Time;durP1;ratioP1;P1;durP2;ratioP2;P2;SDS_P1;SDS_P2;PMS_P1;PMS_P2;Temp;Humidity;BMP_temperature;BMP_pressure;BME280_temperature;BME280_humidity;BME280_pressure;Samples;Min_cycle;Max_cycle;Signal;HPM_P1;HPM_P2
2023/01/08 00:00:41;;;;;;;3.37;3.07;;;;;;;;;;5076237;28;20209;-70
2023/01/08 00:03:07;;;;;;;4.50;4.13;;;;;;;;;;5075934;28;20263;-70
2023/01/08 00:05:33;;;;;;;3.43;2.70;;;;;;;;;;5075917;28;20177;-70
2023/01/08 00:07:59;;;;;;;3.40;2.90;;;;;;;;;;5057988;28;20182;-70
2023/01/08 00:10:24;;;;;;;4.80;2.60;;;;;;;;;;5075984;28;20690;-70
2023/01/08 00:12:50;;;;;;;4.23;2.80;;;;;;;;;;5075605;28;20744;-69
2023/01/08 00:15:16;;;;;;;5.63;3.57;;;;;;;;;;5075535;28;20178;-70
2023/01/08 00:17:42;;;;;;;4.13;2.60;;;;;;;;;;5075733;28;20589;-70
2023/01/08 00:20:08;;;;;;;3.33;2.50;;;;;;;;;;5075540;28;20630;-71
2023/01/08 00:22:34;;;;;;;6.00;2.60;;;;;;;;;;5075386;28;20321;-70
2023/01/08 00:25:00;;;;;;;2.90;2.30;;;;;;;;;;5075684;28;20239;-70
2023/01/08 00:27:26;;;;;;;3.73;2.40;;;;;;;;;;5075269;28;20181;-71
2023/01/08 00:29:54;;;;;;;2.73;2.00;;;;;;;;;;5075734;28;20177;-71
2023/01/08 00:32:20;;;;;;;3.73;2.50;;;;;;;;;;5075267;28;20233;-69
2023/01/08 00:34:47;;;;;;;2.17;1.90;;;;;;;;;;5075176;28;20182;-70
2023/01/08 00:37:13;;;;;;;2.03;1.93;;;;;;;;;;5075326;28;20173;-71
2023/01/08 00:39:39;;;;;;;2.83;2.57;;;;;;;;;;5075477;28;20181;-71
2023/01/08 00:42:05;;;;;;;2.97;2.60;;;;;;;;;;5075671;28;20224;-71
2023/01/08 00:44:30;;;;;;;2.33;2.13;;;;;;;;;;5075392;28;20177;-69
2023/01/08 00:46:56;;;;;;;2.77;2.23;;;;;;;;;;5075193;28;20253;-71
2023/01/08 00:49:22;;;;;;;2.53;1.97;;;;;;;;;;5075165;28;20180;-71
2023/01/08 00:51:48;;;;;;;7.17;2.67;;;;;;;;;;5057276;28;20192;-70
2023/01/08 00:54:14;;;;;;;2.73;2.33;;;;;;;;;;5075435;28;20197;-68
2023/01/08 00:56:40;;;;;;;2.00;1.80;;;;;;;;;;5075463;28;20242;-70
2023/01/08 00:59:06;;;;;;;3.80;2.27;;;;;;;;;;5075082;28;20178;-70
2023/01/08 01:01:32;;;;;;;3.30;2.17;;;;;;;;;;5055998;28;20178;-71
2023/01/08 01:03:58;;;;;;;2.23;2.00;;;;;;;;;;5075192;28;20608;-71
2023/01/08 01:06:24;;;;;;;3.30;2.13;;;;;;;;;;5075274;28;20657;-71
2023/01/08 01:08:51;;;;;;;2.93;2.23;;;;;;;;;;5075438;28;20604;-71
2023/01/08 01:11:18;;;;;;;2.33;2.13;;;;;;;;;;5075326;28;20170;-71
2023/01/08 01:13:44;;;;;;;2.90;2.60;;;;;;;;;;5074988;28;20204;-70
2023/01/08 01:16:10;;;;;;;3.70;2.40;;;;;;;;;;5074367;28;20178;-70
2023/01/08 01:18:36;;;;;;;3.13;2.10;;;;;;;;;;5074196;28;20177;-70
2023/01/08 01:21:08;;;;;;;2.43;2.23;;;;;;;;;;5074297;28;20200;-72
2023/01/08 01:23:34;;;;;;;4.70;2.50;;;;;;;;;;5074130;28;20217;-71
2023/01/08 01:26:00;;;;;;;3.70;2.10;;;;;;;;;;5074142;28;20180;-71
2023/01/08 01:28:26;;;;;;;3.30;2.53;;;;;;;;;;5056175;28;20173;-71
2023/01/08 01:30:56;;;;;;;2.90;2.53;;;;;;;;;;5073979;28;20174;-70
2023/01/08 01:33:22;;;;;;;4.33;2.50;;;;;;;;;;5074034;28;20250;-70
2023/01/08 01:35:48;;;;;;;3.50;2.40;;;;;;;;;;5074424;28;20267;-69
2023/01/08 01:38:14;;;;;;;4.13;2.83;;;;;;;;;;5056384;28;20541;-70
2023/01/08 01:40:43;;;;;;;5.20;2.33;;;;;;;;;;5073970;28;20178;-70
2023/01/08 01:43:13;;;;;;;3.37;2.60;;;;;;;;;;5073913;28;20213;-71
2023/01/08 01:45:39;;;;;;;4.93;2.73;;;;;;;;;;5073939;28;20170;-70
2023/01/08 01:48:08;;;;;;;4.03;2.53;;;;;;;;;;5074111;28;20181;-69
2023/01/08 01:50:45;;;;;;;4.00;2.50;;;;;;;;;;5074049;28;20185;-69
2023/01/08 01:53:14;;;;;;;2.80;2.50;;;;;;;;;;5073786;28;20276;-70
2023/01/08 01:55:41;;;;;;;5.27;2.57;;;;;;;;;;5073901;28;20662;-70
2023/01/08 01:58:11;;;;;;;4.77;2.50;;;;;;;;;;5074021;28;20178;-71
2023/01/08 02:00:37;;;;;;;3.27;2.30;;;;;;;;;;5074466;28;20189;-73
2023/01/08 02:03:05;;;;;;;2.60;2.40;;;;;;;;;;5073790;28;20213;-71
2023/01/08 02:05:38;;;;;;;2.80;2.27;;;;;;;;;;5073688;28;20170;-73
2023/01/08 02:08:07;;;;;;;4.40;2.30;;;;;;;;;;5055682;28;20265;-73
2023/01/08 02:10:40;;;;;;;3.23;2.30;;;;;;;;;;5073761;28;20178;-73
2023/01/08 02:13:26;;;;;;;2.37;2.10;;;;;;;;;;5072940;28;20665;-72
2023/01/08 02:16:04;;;;;;;3.83;2.50;;;;;;;;;;5073514;28;20177;-75
2023/01/08 02:18:34;;;;;;;3.10;2.80;;;;;;;;;;5056607;28;20173;-70
2023/01/08 02:21:10;;;;;;;3.37;2.77;;;;;;;;;;5074985;28;20181;-70
2023/01/08 02:23:48;;;;;;;5.57;2.73;;;;;;;;;;5074823;28;20220;-71
2023/01/08 02:26:14;;;;;;;4.17;3.00;;;;;;;;;;5075002;28;20541;-70
2023/01/08 02:28:43;;;;;;;6.60;3.67;;;;;;;;;;5074580;28;20178;-71
2023/01/08 02:31:11;;;;;;;7.23;4.33;;;;;;;;;;5074530;28;20257;-71
2023/01/08 02:33:37;;;;;;;7.23;4.33;;;;;;;;;;5074874;28;20200;-70
2023/01/08 02:36:25;;;;;;;6.60;4.10;;;;;;;;;;5075134;28;20252;-71
2023/01/08 02:39:00;;;;;;;8.10;4.93;;;;;;;;;;5075023;28;20545;-70
2023/01/08 02:41:30;;;;;;;10.17;6.27;;;;;;;;;;5074354;28;20173;-70
2023/01/08 02:43:57;;;;;;;15.23;6.83;;;;;;;;;;5074329;28;20200;-71
2023/01/08 02:46:26;;;;;;;23.60;10.03;;;;;;;;;;5056725;28;20178;-71
2023/01/08 02:48:54;;;;;;;28.57;10.60;;;;;;;;;;5056552;28;20184;-70
2023/01/08 02:51:23;;;;;;;19.60;9.90;;;;;;;;;;5056159;28;20189;-70
2023/01/08 02:53:56;;;;;;;17.20;9.73;;;;;;;;;;5074736;28;20242;-71
2023/01/08 02:56:33;;;;;;;18.67;8.57;;;;;;;;;;5074504;28;20170;-70
2023/01/08 02:59:00;;;;;;;16.10;8.73;;;;;;;;;;5074753;28;20187;-68
2023/01/08 03:01:26;;;;;;;15.90;9.07;;;;;;;;;;5074649;28;20174;-70
2023/01/08 03:03:55;;;;;;;13.00;8.47;;;;;;;;;;5074185;28;20198;-70
2023/01/08 03:06:21;;;;;;;14.70;8.13;;;;;;;;;;5074474;28;20646;-70
2023/01/08 03:08:48;;;;;;;14.60;7.90;;;;;;;;;;5056554;28;20186;-70
2023/01/08 03:11:15;;;;;;;9.70;6.37;;;;;;;;;;5074522;28;20188;-70
2023/01/08 03:13:45;;;;;;;10.23;6.60;;;;;;;;;;5056519;28;20201;-70
2023/01/08 03:16:15;;;;;;;8.37;4.90;;;;;;;;;;5074332;28;20199;-68
2023/01/08 03:18:45;;;;;;;9.57;5.13;;;;;;;;;;5056279;28;20178;-70
2023/01/08 03:21:11;;;;;;;8.37;5.70;;;;;;;;;;5073996;28;20558;-69
2023/01/08 03:23:38;;;;;;;11.20;6.30;;;;;;;;;;5074832;28;20220;-70
2023/01/08 03:26:05;;;;;;;11.50;6.30;;;;;;;;;;5060076;28;20593;-70
2023/01/08 03:28:34;;;;;;;10.43;5.67;;;;;;;;;;5078246;28;20185;-70
2023/01/08 03:31:01;;;;;;;12.07;6.30;;;;;;;;;;5078110;28;20621;-70
2023/01/08 03:33:29;;;;;;;8.17;5.30;;;;;;;;;;5076571;28;20221;-71
2023/01/08 03:35:56;;;;;;;11.27;5.80;;;;;;;;;;5077153;28;20181;-70
2023/01/08 03:38:27;;;;;;;9.43;4.80;;;;;;;;;;5076983;28;20185;-70
2023/01/08 03:40:56;;;;;;;8.90;4.90;;;;;;;;;;5077795;28;20665;-70
2023/01/08 03:43:22;;;;;;;7.43;4.30;;;;;;;;;;5076738;28;20283;-70
2023/01/08 03:45:50;;;;;;;7.83;4.97;;;;;;;;;;5077103;28;20177;-70
2023/01/08 03:48:18;;;;;;;7.70;4.50;;;;;;;;;;5077099;28;20182;-70
2023/01/08 03:50:44;;;;;;;7.13;4.63;;;;;;;;;;5076990;28;20208;-70
2023/01/08 03:53:10;;;;;;;11.53;5.77;;;;;;;;;;5076919;28;20194;-70
2023/01/08 03:55:36;;;;;;;9.67;6.20;;;;;;;;;;5077203;28;20549;-71
2023/01/08 03:58:02;;;;;;;8.50;5.80;;;;;;;;;;5077295;28;20220;-70
2023/01/08 04:00:28;;;;;;;9.37;5.80;;;;;;;;;;5077362;28;20182;-70
2023/01/08 04:02:53;;;;;;;10.57;5.97;;;;;;;;;;5076863;28;20213;-71
2023/01/08 04:05:19;;;;;;;11.50;5.07;;;;;;;;;;5076864;28;20223;-70
2023/01/08 04:07:45;;;;;;;10.97;5.67;;;;;;;;;;5076733;28;20224;-71
2023/01/08 04:10:11;;;;;;;8.77;5.20;;;;;;;;;;5076863;28;20180;-71
2023/01/08 04:12:37;;;;;;;7.17;5.10;;;;;;;;;;5059256;28;20211;-71
2023/01/08 04:15:03;;;;;;;7.47;5.07;;;;;;;;;;5076768;28;20174;-71
2023/01/08 04:17:29;;;;;;;5.80;4.13;;;;;;;;;;5076823;28;20200;-68
2023/01/08 04:19:55;;;;;;;5.67;4.13;;;;;;;;;;5076772;28;20182;-71
2023/01/08 04:22:21;;;;;;;4.30;3.37;;;;;;;;;;5076116;28;20312;-70
2023/01/08 04:24:47;;;;;;;6.90;4.43;;;;;;;;;;5076473;28;20182;-70
2023/01/08 04:27:13;;;;;;;4.60;3.67;;;;;;;;;;5076105;28;20178;-70
2023/01/08 04:29:39;;;;;;;4.67;3.57;;;;;;;;;;5076895;28;20185;-71
2023/01/08 04:32:05;;;;;;;5.73;3.87;;;;;;;;;;5058300;28;20268;-70
2023/01/08 04:34:31;;;;;;;6.43;4.27;;;;;;;;;;5076446;28;20174;-71
2023/01/08 04:36:57;;;;;;;7.57;4.60;;;;;;;;;;5075120;28;20185;-70
2023/01/08 04:39:23;;;;;;;5.70;4.23;;;;;;;;;;5076175;28;20730;-71
2023/01/08 04:41:49;;;;;;;7.67;4.40;;;;;;;;;;5076715;28;20224;-70
2023/01/08 04:44:15;;;;;;;6.73;4.67;;;;;;;;;;5058501;28;20198;-70
2023/01/08 04:46:40;;;;;;;9.73;5.03;;;;;;;;;;5076443;28;20207;-72
2023/01/08 04:49:06;;;;;;;8.03;5.27;;;;;;;;;;5075961;28;20199;-70
2023/01/08 04:51:32;;;;;;;10.03;4.80;;;;;;;;;;5076546;28;20173;-70
2023/01/08 04:53:58;;;;;;;6.93;5.10;;;;;;;;;;5057978;28;20193;-70
2023/01/08 04:56:24;;;;;;;8.47;4.97;;;;;;;;;;5076634;28;20177;-71
2023/01/08 04:58:51;;;;;;;7.93;4.80;;;;;;;;;;5057497;28;20198;-71
2023/01/08 05:01:21;;;;;;;6.40;4.80;;;;;;;;;;5058168;28;20279;-73
2023/01/08 05:03:47;;;;;;;6.40;4.13;;;;;;;;;;5076484;28;20213;-70
2023/01/08 05:06:13;;;;;;;3.27;2.90;;;;;;;;;;5091787;22;20222;-75
2023/01/08 05:08:39;;;;;;;3.77;2.97;;;;;;;;;;5076936;28;20165;-76
2023/01/08 05:11:05;;;;;;;4.40;2.47;;;;;;;;;;5078276;28;20176;-75
2023/01/08 05:13:31;;;;;;;3.37;2.63;;;;;;;;;;5078358;28;20174;-75
2023/01/08 05:16:01;;;;;;;4.73;2.70;;;;;;;;;;5078374;28;20225;-75
2023/01/08 05:18:27;;;;;;;2.67;2.33;;;;;;;;;;5078232;28;20264;-75
2023/01/08 05:20:53;;;;;;;3.30;2.37;;;;;;;;;;5078128;28;20181;-75
2023/01/08 05:23:19;;;;;;;3.17;2.57;;;;;;;;;;5077826;28;20210;-75
2023/01/08 05:25:45;;;;;;;4.07;2.40;;;;;;;;;;5059799;28;20178;-75
2023/01/08 05:28:11;;;;;;;3.03;2.73;;;;;;;;;;5078449;28;20552;-75
2023/01/08 05:30:37;;;;;;;3.43;2.40;;;;;;;;;;5077856;28;20166;-75
2023/01/08 05:33:03;;;;;;;4.13;2.30;;;;;;;;;;5059895;28;20273;-75
2023/01/08 05:35:29;;;;;;;2.63;2.10;;;;;;;;;;5058925;28;20188;-75
2023/01/08 05:37:55;;;;;;;3.73;2.13;;;;;;;;;;5058848;28;20182;-74
2023/01/08 05:40:21;;;;;;;2.73;2.30;;;;;;;;;;5058787;28;20182;-75
2023/01/08 05:42:47;;;;;;;3.37;2.30;;;;;;;;;;5081722;28;20262;-74
2023/01/08 05:45:14;;;;;;;2.33;1.93;;;;;;;;;;5068702;28;20178;-75
2023/01/08 05:47:40;;;;;;;3.03;2.10;;;;;;;;;;5072523;28;20197;-75
2023/01/08 05:50:06;;;;;;;2.47;2.10;;;;;;;;;;5090270;28;20177;-74
2023/01/08 05:52:32;;;;;;;3.83;2.13;;;;;;;;;;5090699;28;20186;-74
2023/01/08 05:54:59;;;;;;;2.63;1.93;;;;;;;;;;5070531;28;20189;-74
2023/01/08 05:57:25;;;;;;;3.27;2.17;;;;;;;;;;5089464;28;20669;-73
2023/01/08 05:59:51;;;;;;;2.73;2.07;;;;;;;;;;5089901;28;20186;-73
2023/01/08 06:02:17;;;;;;;2.23;1.90;;;;;;;;;;5070846;28;20201;-73
2023/01/08 06:04:43;;;;;;;2.13;1.93;;;;;;;;;;5066611;28;20170;-73
2023/01/08 06:07:09;;;;;;;4.43;2.53;;;;;;;;;;5077824;28;20220;-75
2023/01/08 06:09:35;;;;;;;2.63;2.10;;;;;;;;;;5059694;28;20178;-74
2023/01/08 06:12:01;;;;;;;2.53;1.80;;;;;;;;;;5060141;28;20619;-74
2023/01/08 06:14:27;;;;;;;2.73;1.30;;;;;;;;;;5059383;28;20645;-74
2023/01/08 06:16:53;;;;;;;3.27;1.83;;;;;;;;;;5059647;28;20201;-75
2023/01/08 06:19:19;;;;;;;5.80;1.80;;;;;;;;;;5059640;28;20185;-75
2023/01/08 06:21:45;;;;;;;4.87;1.70;;;;;;;;;;5058841;28;20271;-75
2023/01/08 06:24:11;;;;;;;4.37;1.57;;;;;;;;;;5078286;28;20170;-74
2023/01/08 06:26:37;;;;;;;2.37;1.77;;;;;;;;;;5059363;28;20240;-75
2023/01/08 06:29:03;;;;;;;3.80;1.50;;;;;;;;;;5060518;28;20196;-75
2023/01/08 06:31:29;;;;;;;5.33;1.67;;;;;;;;;;5086522;28;20197;-76
2023/01/08 06:33:55;;;;;;;3.87;1.80;;;;;;;;;;5092763;28;20199;-76
2023/01/08 06:36:21;;;;;;;2.30;1.40;;;;;;;;;;5070812;28;20278;-75
2023/01/08 06:38:47;;;;;;;4.20;1.70;;;;;;;;;;5061157;28;20276;-76
2023/01/08 06:41:13;;;;;;;3.63;2.00;;;;;;;;;;5060046;28;20185;-75
2023/01/08 06:43:39;;;;;;;3.07;1.30;;;;;;;;;;5077687;28;20209;-75
2023/01/08 06:46:05;;;;;;;4.80;1.40;;;;;;;;;;5059031;28;20201;-74
2023/01/08 06:48:31;;;;;;;3.20;1.50;;;;;;;;;;5076773;28;20170;-73
2023/01/08 06:50:59;;;;;;;3.87;1.60;;;;;;;;;;5059205;28;20182;-74
2023/01/08 06:53:25;;;;;;;5.87;1.83;;;;;;;;;;5059461;28;20591;-72
2023/01/08 06:55:55;;;;;;;8.43;1.77;;;;;;;;;;5058575;28;20669;-74
2023/01/08 06:58:21;;;;;;;4.00;1.50;;;;;;;;;;5059305;28;20263;-73
2023/01/08 07:00:47;;;;;;;3.00;1.60;;;;;;;;;;5062620;28;20213;-74
2023/01/08 07:03:13;;;;;;;3.70;1.60;;;;;;;;;;5081431;28;20216;-73
2023/01/08 07:05:39;;;;;;;5.77;1.77;;;;;;;;;;5081653;28;20650;-75
2023/01/08 07:08:05;;;;;;;4.53;1.60;;;;;;;;;;5082529;28;20174;-74
2023/01/08 07:10:31;;;;;;;4.33;1.53;;;;;;;;;;5064307;28;20264;-74
2023/01/08 07:12:58;;;;;;;4.63;2.10;;;;;;;;;;5063395;28;20239;-75
2023/01/08 07:15:24;;;;;;;8.07;2.00;;;;;;;;;;5082149;28;20178;-74
2023/01/08 07:17:50;;;;;;;4.80;2.00;;;;;;;;;;5080792;28;20219;-74
2023/01/08 07:20:15;;;;;;;4.77;1.60;;;;;;;;;;5062607;28;20181;-74
2023/01/08 07:22:41;;;;;;;4.73;1.50;;;;;;;;;;5081065;28;20334;-75
2023/01/08 07:25:08;;;;;;;3.50;1.90;;;;;;;;;;5062869;28;20173;-74
2023/01/08 07:27:33;;;;;;;2.83;1.50;;;;;;;;;;5080953;28;20215;-74
2023/01/08 07:29:59;;;;;;;3.67;1.60;;;;;;;;;;5063283;28;20181;-74
2023/01/08 07:32:25;;;;;;;2.53;1.80;;;;;;;;;;5080916;28;20650;-74
2023/01/08 07:34:53;;;;;;;2.93;1.73;;;;;;;;;;5081280;28;20188;-74
2023/01/08 07:37:19;;;;;;;2.90;1.50;;;;;;;;;;5080966;28;20193;-74
2023/01/08 07:39:45;;;;;;;4.07;1.67;;;;;;;;;;5081686;28;20174;-74
2023/01/08 07:42:11;;;;;;;3.33;1.47;;;;;;;;;;5081589;28;20239;-74
2023/01/08 07:44:37;;;;;;;2.87;1.70;;;;;;;;;;5081936;28;20178;-74
2023/01/08 07:47:03;;;;;;;5.33;1.77;;;;;;;;;;5063055;28;20202;-75
2023/01/08 07:49:29;;;;;;;3.63;1.63;;;;;;;;;;5080929;28;20264;-75
2023/01/08 07:51:55;;;;;;;2.60;1.50;;;;;;;;;;5081793;28;20253;-75
2023/01/08 07:54:21;;;;;;;4.00;2.40;;;;;;;;;;5081636;28;20204;-75
2023/01/08 07:56:47;;;;;;;6.33;1.83;;;;;;;;;;5081392;28;20564;-75
2023/01/08 07:59:13;;;;;;;3.50;2.03;;;;;;;;;;5063271;28;20181;-75
2023/01/08 08:01:38;;;;;;;3.30;1.80;;;;;;;;;;5062769;28;20202;-75
2023/01/08 08:04:04;;;;;;;5.13;1.90;;;;;;;;;;5081351;28;20177;-75
2023/01/08 08:06:30;;;;;;;3.07;1.57;;;;;;;;;;5063076;28;20563;-75
2023/01/08 08:08:58;;;;;;;4.40;1.90;;;;;;;;;;5063911;28;20580;-75
2023/01/08 08:11:24;;;;;;;5.07;2.27;;;;;;;;;;5080658;28;20178;-75
2023/01/08 08:13:50;;;;;;;6.30;1.53;;;;;;;;;;5063191;28;20188;-75
2023/01/08 08:16:16;;;;;;;6.17;2.00;;;;;;;;;;5063351;28;20692;-75
2023/01/08 08:18:42;;;;;;;4.57;2.10;;;;;;;;;;5081099;28;20529;-75
2023/01/08 08:21:08;;;;;;;5.20;1.63;;;;;;;;;;5079692;28;20182;-75
2023/01/08 08:23:34;;;;;;;4.60;2.20;;;;;;;;;;5064581;28;20206;-75
2023/01/08 08:26:02;;;;;;;8.00;2.20;;;;;;;;;;5064176;28;20198;-75
2023/01/08 08:28:27;;;;;;;5.10;2.20;;;;;;;;;;5063229;28;20204;-76
2023/01/08 08:30:53;;;;;;;7.53;2.00;;;;;;;;;;5082538;28;20174;-75
2023/01/08 08:33:19;;;;;;;5.23;2.10;;;;;;;;;;5084402;28;20256;-76
2023/01/08 08:35:49;;;;;;;6.90;2.20;;;;;;;;;;5081934;28;20178;-76
2023/01/08 08:38:16;;;;;;;5.97;2.37;;;;;;;;;;5065820;28;20197;-76
2023/01/08 08:40:42;;;;;;;8.20;2.70;;;;;;;;;;5083350;28;20178;-76
2023/01/08 08:43:08;;;;;;;4.63;2.23;;;;;;;;;;5081959;28;20205;-75
2023/01/08 08:45:34;;;;;;;5.40;2.07;;;;;;;;;;5064724;28;20625;-75
2023/01/08 08:48:01;;;;;;;7.63;2.27;;;;;;;;;;5064541;28;20179;-76
2023/01/08 08:50:27;;;;;;;3.87;2.10;;;;;;;;;;5064219;28;20185;-76
2023/01/08 08:52:57;;;;;;;6.27;2.70;;;;;;;;;;5081280;28;20181;-76
2023/01/08 08:55:23;;;;;;;6.83;2.53;;;;;;;;;;5081784;28;20166;-75
2023/01/08 08:57:49;;;;;;;7.43;2.37;;;;;;;;;;5082444;28;20202;-76
2023/01/08 09:00:15;;;;;;;4.47;2.20;;;;;;;;;;5083810;28;20231;-76
2023/01/08 09:02:41;;;;;;;5.90;2.17;;;;;;;;;;5083138;28;20248;-76
2023/01/08 09:05:07;;;;;;;4.93;2.40;;;;;;;;;;5083132;28;20638;-76
2023/01/08 09:07:33;;;;;;;5.77;1.90;;;;;;;;;;5084669;28;20232;-76
2023/01/08 09:09:59;;;;;;;9.27;2.07;;;;;;;;;;5083927;28;20170;-75
2023/01/08 09:12:25;;;;;;;8.47;2.20;;;;;;;;;;5083849;28;20174;-75
2023/01/08 09:14:53;;;;;;;7.20;2.10;;;;;;;;;;5064523;28;20189;-76
2023/01/08 09:17:20;;;;;;;8.37;2.30;;;;;;;;;;5076605;28;20229;-75
2023/01/08 09:19:46;;;;;;;7.03;1.80;;;;;;;;;;5058034;28;20185;-76
2023/01/08 09:22:12;;;;;;;6.00;2.10;;;;;;;;;;5075809;28;20205;-75
2023/01/08 09:24:38;;;;;;;6.20;2.13;;;;;;;;;;5065285;28;20201;-77
2023/01/08 09:27:04;;;;;;;7.03;2.00;;;;;;;;;;5096786;28;20188;-77
2023/01/08 09:29:30;;;;;;;6.43;2.30;;;;;;;;;;5095324;28;20180;-76
2023/01/08 09:31:58;;;;;;;7.03;2.20;;;;;;;;;;5063101;28;20276;-75
2023/01/08 09:34:24;;;;;;;7.60;2.07;;;;;;;;;;5076845;28;20549;-76
2023/01/08 09:36:51;;;;;;;6.47;2.40;;;;;;;;;;5058030;28;20197;-76
2023/01/08 09:39:17;;;;;;;8.77;2.50;;;;;;;;;;5075754;28;20173;-76
2023/01/08 09:41:45;;;;;;;11.50;2.50;;;;;;;;;;5075535;28;20178;-75
2023/01/08 09:44:14;;;;;;;8.83;2.70;;;;;;;;;;5057453;28;20264;-76
2023/01/08 09:46:40;;;;;;;7.33;2.97;;;;;;;;;;5058744;28;20209;-76
2023/01/08 09:49:07;;;;;;;5.80;2.10;;;;;;;;;;5076014;28;20178;-75
2023/01/08 09:51:34;;;;;;;9.13;2.67;;;;;;;;;;5076046;28;20170;-76
2023/01/08 09:54:01;;;;;;;8.07;2.50;;;;;;;;;;5057888;28;20182;-76
2023/01/08 09:56:27;;;;;;;5.43;2.30;;;;;;;;;;5057874;28;20582;-76
2023/01/08 09:58:55;;;;;;;4.50;2.37;;;;;;;;;;5075762;28;20198;-76
2023/01/08 10:01:23;;;;;;;9.07;2.60;;;;;;;;;;5057889;28;20672;-74
2023/01/08 10:03:51;;;;;;;6.93;2.47;;;;;;;;;;5075390;28;20292;-75
2023/01/08 10:06:17;;;;;;;9.83;2.37;;;;;;;;;;5058313;28;20209;-75
2023/01/08 10:08:43;;;;;;;10.83;4.50;;;;;;;;;;5057939;28;20165;-75
2023/01/08 10:11:10;;;;;;;8.57;3.20;;;;;;;;;;5058777;28;20185;-76
2023/01/08 10:13:40;;;;;;;14.27;3.13;;;;;;;;;;5059004;28;20182;-76
2023/01/08 10:16:07;;;;;;;4.53;2.50;;;;;;;;;;5075875;28;20205;-76
2023/01/08 10:18:34;;;;;;;6.57;2.50;;;;;;;;;;5058201;28;20174;-75
2023/01/08 10:21:00;;;;;;;5.97;2.33;;;;;;;;;;5057870;28;20186;-75
2023/01/08 10:23:26;;;;;;;8.97;2.63;;;;;;;;;;5058067;28;20296;-76
2023/01/08 10:25:53;;;;;;;5.97;2.23;;;;;;;;;;5057463;28;20197;-75
2023/01/08 10:28:21;;;;;;;8.47;3.07;;;;;;;;;;5057864;28;20264;-75
2023/01/08 10:30:48;;;;;;;9.23;2.40;;;;;;;;;;5075614;28;20177;-76
2023/01/08 10:33:19;;;;;;;8.67;2.70;;;;;;;;;;5057695;28;20182;-76
2023/01/08 10:35:51;;;;;;;6.17;2.10;;;;;;;;;;5079639;28;20633;-76
2023/01/08 10:38:26;;;;;;;9.37;2.40;;;;;;;;;;5061490;28;20174;-75
2023/01/08 10:40:52;;;;;;;5.43;2.30;;;;;;;;;;5079234;28;20184;-76
2023/01/08 10:43:20;;;;;;;9.33;2.60;;;;;;;;;;5080297;28;20209;-77
2023/01/08 10:45:55;;;;;;;7.97;2.67;;;;;;;;;;5061804;28;20186;-74
2023/01/08 10:48:21;;;;;;;11.10;2.80;;;;;;;;;;5061548;28;20178;-75
2023/01/08 10:50:47;;;;;;;7.33;2.87;;;;;;;;;;5079301;28;20173;-75
2023/01/08 10:53:27;;;;;;;7.37;2.77;;;;;;;;;;5080234;28;20660;-76
2023/01/08 10:56:00;;;;;;;7.23;2.03;;;;;;;;;;5081714;28;20201;-76
2023/01/08 10:58:28;;;;;;;7.73;2.20;;;;;;;;;;5080770;28;20174;-75
2023/01/08 11:00:54;;;;;;;6.00;2.13;;;;;;;;;;5061837;28;20186;-75
2023/01/08 11:03:25;;;;;;;5.47;2.00;;;;;;;;;;5061725;28;20212;-75
2023/01/08 11:05:51;;;;;;;4.83;2.80;;;;;;;;;;5060970;28;20197;-75
2023/01/08 11:08:20;;;;;;;5.40;1.90;;;;;;;;;;5061156;28;20272;-75
2023/01/08 11:10:59;;;;;;;6.20;2.17;;;;;;;;;;5060745;28;20551;-74
2023/01/08 11:13:25;;;;;;;5.27;2.23;;;;;;;;;;5078540;28;20183;-75
2023/01/08 11:16:06;;;;;;;5.80;2.70;;;;;;;;;;5102454;22;20237;-69
2023/01/08 11:18:36;;;;;;;10.70;3.80;;;;;;;;;;5076626;28;20192;-69
2023/01/08 11:21:09;;;;;;;10.70;4.17;;;;;;;;;;5075276;28;20657;-70
2023/01/08 11:23:36;;;;;;;5.63;2.30;;;;;;;;;;5076669;28;20202;-71
2023/01/08 11:26:10;;;;;;;5.40;2.20;;;;;;;;;;5076571;28;20228;-70
2023/01/08 11:28:47;;;;;;;5.03;2.10;;;;;;;;;;5058537;28;20212;-70
2023/01/08 11:31:14;;;;;;;4.67;2.03;;;;;;;;;;5076448;28;20162;-70
2023/01/08 11:33:41;;;;;;;3.20;1.67;;;;;;;;;;5058250;28;20594;-71
2023/01/08 11:36:11;;;;;;;5.33;2.20;;;;;;;;;;5058160;28;20576;-71
2023/01/08 11:38:37;;;;;;;5.43;2.13;;;;;;;;;;5076783;28;20634;-70
2023/01/08 11:41:28;;;;;;;6.97;2.00;;;;;;;;;;5058170;28;20208;-70
2023/01/08 11:44:04;;;;;;;4.93;2.13;;;;;;;;;;5076318;28;20196;-70
2023/01/08 11:46:49;;;;;;;3.43;1.73;;;;;;;;;;5076145;28;20165;-70
2023/01/08 11:49:30;;;;;;;4.60;1.90;;;;;;;;;;5058032;28;20181;-68
2023/01/08 11:52:02;;;;;;;2.97;1.83;;;;;;;;;;5057936;28;20269;-70
2023/01/08 11:54:36;;;;;;;4.40;1.90;;;;;;;;;;5076142;28;20276;-69
2023/01/08 11:57:17;;;;;;;3.60;1.70;;;;;;;;;;5076155;28;20537;-72
2023/01/08 11:59:53;;;;;;;3.90;1.67;;;;;;;;;;5076389;28;20237;-69
2023/01/08 12:02:22;;;;;;;4.27;2.30;;;;;;;;;;5057784;28;20205;-73
2023/01/08 12:04:55;;;;;;;6.83;2.03;;;;;;;;;;5075706;28;20209;-69
2023/01/08 12:07:21;;;;;;;3.07;1.77;;;;;;;;;;5057812;28;20176;-70
2023/01/08 12:09:53;;;;;;;4.40;1.60;;;;;;;;;;5057721;28;20261;-71
2023/01/08 12:12:37;;;;;;;2.37;1.40;;;;;;;;;;5057716;28;20277;-74
2023/01/08 12:15:09;;;;;;;1.73;1.30;;;;;;;;;;5075568;28;20205;-72
2023/01/08 12:17:54;;;;;;;3.57;1.23;;;;;;;;;;5057858;28;20268;-71
2023/01/08 12:20:26;;;;;;;2.20;1.30;;;;;;;;;;5075613;28;20223;-71
2023/01/08 12:22:59;;;;;;;1.77;1.20;;;;;;;;;;5057386;28;20583;-71
2023/01/08 12:25:44;;;;;;;1.33;1.10;;;;;;;;;;5075399;28;20198;-71
2023/01/08 12:28:13;;;;;;;4.17;1.30;;;;;;;;;;5075602;28;20180;-70
2023/01/08 12:30:51;;;;;;;3.87;1.40;;;;;;;;;;5075607;28;20184;-71
2023/01/08 12:33:36;;;;;;;2.23;1.40;;;;;;;;;;5057333;28;20178;-71
2023/01/08 12:36:06;;;;;;;1.37;1.23;;;;;;;;;;5074972;28;20688;-70
2023/01/08 12:38:36;;;;;;;1.20;1.10;;;;;;;;;;5057110;28;20178;-69
2023/01/08 12:41:29;;;;;;;2.73;1.30;;;;;;;;;;5074855;28;20178;-70
2023/01/08 12:43:57;;;;;;;4.07;2.00;;;;;;;;;;5071151;28;20300;-71
2023/01/08 12:46:25;;;;;;;2.40;1.63;;;;;;;;;;5056873;28;20548;-69
2023/01/08 12:48:52;;;;;;;1.50;1.30;;;;;;;;;;5074765;28;20174;-71
2023/01/08 12:51:33;;;;;;;2.90;1.70;;;;;;;;;;5074865;28;20282;-71
2023/01/08 12:53:59;;;;;;;2.40;1.60;;;;;;;;;;5074635;28;20174;-71
2023/01/08 12:56:34;;;;;;;2.07;1.43;;;;;;;;;;5055830;28;20212;-70
2023/01/08 12:59:09;;;;;;;1.73;1.63;;;;;;;;;;5074605;28;20177;-71
2023/01/08 13:01:54;;;;;;;2.90;1.20;;;;;;;;;;5056797;28;20234;-70
2023/01/08 13:04:20;;;;;;;2.67;1.23;;;;;;;;;;5074740;28;20181;-70
2023/01/08 13:06:59;;;;;;;1.77;1.63;;;;;;;;;;5074589;28;20295;-70
2023/01/08 13:09:26;;;;;;;2.57;1.33;;;;;;;;;;5074789;28;20223;-71
2023/01/08 13:11:53;;;;;;;3.23;1.60;;;;;;;;;;5056403;28;20178;-71
2023/01/08 13:14:19;;;;;;;1.80;1.40;;;;;;;;;;5074525;28;20177;-73
2023/01/08 13:16:46;;;;;;;1.53;1.33;;;;;;;;;;5074731;28;20622;-70
2023/01/08 13:19:23;;;;;;;2.43;1.30;;;;;;;;;;5056461;28;20273;-71
2023/01/08 13:21:50;;;;;;;1.80;1.40;;;;;;;;;;5074145;28;20174;-71
2023/01/08 13:24:22;;;;;;;1.40;1.20;;;;;;;;;;5056234;28;20187;-72
2023/01/08 13:26:48;;;;;;;3.80;1.50;;;;;;;;;;5056307;28;20184;-70
2023/01/08 13:29:23;;;;;;;2.93;1.50;;;;;;;;;;5074357;28;20344;-70
2023/01/08 13:31:49;;;;;;;3.07;1.40;;;;;;;;;;5056125;28;20235;-69
2023/01/08 13:34:39;;;;;;;1.87;1.40;;;;;;;;;;5056004;28;20586;-70
2023/01/08 13:37:05;;;;;;;2.00;1.50;;;;;;;;;;5063917;28;20197;-70
2023/01/08 13:39:40;;;;;;;1.70;1.50;;;;;;;;;;5074024;28;20169;-69
2023/01/08 13:42:23;;;;;;;2.47;1.57;;;;;;;;;;5074098;28;20195;-71
2023/01/08 13:44:50;;;;;;;3.80;1.40;;;;;;;;;;5055830;28;20288;-70
2023/01/08 13:47:28;;;;;;;3.63;1.60;;;;;;;;;;5073988;28;20202;-70
2023/01/08 13:49:55;;;;;;;3.13;1.50;;;;;;;;;;5074644;28;20641;-70
2023/01/08 13:52:41;;;;;;;1.67;1.20;;;;;;;;;;5074192;28;20182;-70
2023/01/08 13:55:15;;;;;;;3.43;1.50;;;;;;;;;;5074052;28;20221;-70
2023/01/08 13:57:47;;;;;;;2.07;1.30;;;;;;;;;;5055924;28;20231;-71
2023/01/08 14:00:18;;;;;;;2.87;1.30;;;;;;;;;;5074335;28;20212;-71
2023/01/08 14:02:49;;;;;;;14.57;10.63;;;;;;;;;;5074100;28;20216;-71
2023/01/08 14:05:19;;;;;;;3.83;3.40;;;;;;;;;;5056119;28;20557;-70
2023/01/08 14:07:45;;;;;;;7.57;6.73;;;;;;;;;;5073588;28;20220;-74
2023/01/08 14:10:13;;;;;;;9.90;8.17;;;;;;;;;;5055913;28;20181;-71
2023/01/08 14:12:39;;;;;;;13.23;10.03;;;;;;;;;;5056112;28;20173;-75
2023/01/08 14:15:08;;;;;;;6.07;4.07;;;;;;;;;;5055906;28;20318;-76
2023/01/08 14:17:35;;;;;;;15.87;11.97;;;;;;;;;;5074183;28;20227;-74
2023/01/08 14:20:01;;;;;;;5.37;3.67;;;;;;;;;;5056103;28;20549;-75
2023/01/08 14:22:30;;;;;;;5.33;3.33;;;;;;;;;;5055978;28;20202;-74
2023/01/08 14:24:57;;;;;;;3.93;1.90;;;;;;;;;;5074134;28;20699;-75
2023/01/08 14:27:25;;;;;;;10.27;8.33;;;;;;;;;;5074144;28;20193;-75
2023/01/08 14:29:51;;;;;;;6.60;5.87;;;;;;;;;;5056885;28;20181;-73
2023/01/08 14:32:18;;;;;;;3.20;2.90;;;;;;;;;;5074930;28;20224;-75
2023/01/08 14:34:45;;;;;;;2.87;1.50;;;;;;;;;;5056908;28;20347;-74
2023/01/08 14:37:15;;;;;;;8.40;5.70;;;;;;;;;;5057401;28;20177;-76
2023/01/08 14:39:41;;;;;;;10.00;8.90;;;;;;;;;;5078101;28;20182;-76
2023/01/08 14:45:03;;;;;;;36.63;27.07;;;;;;;;;;5075330;28;20281;-75
2023/01/08 14:47:30;;;;;;;7.67;6.63;;;;;;;;;;5074862;28;20673;-71
2023/01/08 14:49:56;;;;;;;6.50;5.37;;;;;;;;;;5056062;28;20174;-74